Time;durP1;ratioP1;P1;durP2;ratioP2;P2;SDS_P1;SDS_P2;PMS_P1;PMS_P2;Temp;Humidity;BMP_temperature;BMP_pressure;BME280_temperature;BME280_humidity;BME280_pressure;Samples;Min_cycle;Max_cycle;Signal;HPM_P1;HPM_P2
2021/09/02 00:00:18;;;;;;;461.60;432.90;;;11.90;99.90;;;;;;5084360;28;20052;-63
2021/09/02 00:02:43;;;;;;;429.73;403.13;;;11.80;99.90;;;;;;5085597;28;20045;-62
2021/09/02 00:05:09;;;;;;;471.58;441.52;;;11.70;99.90;;;;;;5089308;28;20048;-62
2021/09/02 00:07:35;;;;;;;456.42;428.00;;;11.60;99.90;;;;;;5082998;28;20131;-62
2021/09/02 00:10:02;;;;;;;456.77;427.58;;;11.60;99.90;;;;;;5084595;28;20060;-62
2021/09/02 00:12:28;;;;;;;446.10;418.42;;;11.60;99.90;;;;;;5085664;28;20045;-63
2021/09/02 00:14:53;;;;;;;473.42;444.33;;;11.60;99.90;;;;;;5085693;28;20047;-62
2021/09/02 00:17:19;;;;;;;447.98;420.08;;;11.70;99.90;;;;;;5083929;28;20104;-62
2021/09/02 00:19:45;;;;;;;455.80;426.60;;;11.70;99.90;;;;;;5084085;28;20040;-62
2021/09/02 00:22:11;;;;;;;461.98;432.13;;;11.70;99.90;;;;;;5084873;28;20184;-62
2021/09/02 00:24:36;;;;;;;470.90;442.02;;;11.70;99.90;;;;;;5084620;28;20045;-63
2021/09/02 00:27:02;;;;;;;444.85;416.23;;;11.70;99.90;;;;;;5084168;28;20043;-62
2021/09/02 00:29:28;;;;;;;467.52;438.17;;;11.70;99.90;;;;;;5085234;28;20101;-62
2021/09/02 00:31:54;;;;;;;444.98;416.95;;;11.70;99.90;;;;;;5084670;28;20670;-62
2021/09/02 00:34:19;;;;;;;455.05;427.00;;;11.70;99.90;;;;;;5080297;28;20043;-62
2021/09/02 00:36:45;;;;;;;462.77;434.23;;;11.80;99.90;;;;;;5085007;28;20047;-62
2021/09/02 00:39:11;;;;;;;450.67;423.23;;;11.80;99.90;;;;;;5085593;28;20048;-62
2021/09/02 00:41:37;;;;;;;431.20;404.55;;;11.80;99.90;;;;;;5083650;28;20036;-62
2021/09/02 00:44:02;;;;;;;422.38;396.75;;;11.80;99.90;;;;;;5084629;28;20056;-62
2021/09/02 00:46:28;;;;;;;450.60;421.08;;;11.80;99.90;;;;;;5083279;28;20119;-62
2021/09/02 00:48:54;;;;;;;448.77;420.35;;;11.80;99.90;;;;;;5084355;28;20044;-62
2021/09/02 00:51:21;;;;;;;430.33;402.63;;;11.80;99.90;;;;;;5083607;28;20087;-62
2021/09/02 00:53:55;;;;;;;457.75;429.48;;;11.70;99.90;;;;;;5083102;28;20071;-62
2021/09/02 00:56:23;;;;;;;469.77;440.75;;;11.80;99.90;;;;;;5083200;28;20059;-62
2021/09/02 00:58:49;;;;;;;438.00;410.58;;;11.70;99.90;;;;;;5084732;28;20428;-62
2021/09/02 01:01:21;;;;;;;426.38;399.80;;;11.70;99.90;;;;;;5084643;28;20079;-63
2021/09/02 01:03:47;;;;;;;426.63;399.58;;;11.60;99.90;;;;;;5088922;28;20118;-62
2021/09/02 01:06:15;;;;;;;428.45;402.05;;;11.60;99.90;;;;;;5089573;28;20067;-62
2021/09/02 01:08:41;;;;;;;427.13;400.45;;;11.70;99.90;;;;;;5084259;28;20123;-62
2021/09/02 01:11:07;;;;;;;458.30;429.60;;;11.70;99.90;;;;;;5083629;28;20067;-62
2021/09/02 01:13:33;;;;;;;432.65;405.83;;;11.70;99.90;;;;;;5084270;28;20067;-62
2021/09/02 01:15:59;;;;;;;423.67;397.13;;;11.70;99.90;;;;;;5084718;28;20032;-62
2021/09/02 01:18:24;;;;;;;448.77;421.63;;;11.60;99.90;;;;;;5082733;28;20044;-62
2021/09/02 01:20:50;;;;;;;431.50;404.65;;;11.60;99.90;;;;;;5084735;28;20128;-62
2021/09/02 01:23:20;;;;;;;452.73;424.67;;;11.60;99.90;;;;;;5084909;28;20048;-62
2021/09/02 01:25:45;;;;;;;457.52;428.90;;;11.50;99.90;;;;;;5085048;28;20055;-62
2021/09/02 01:28:12;;;;;;;423.95;398.30;;;11.50;99.90;;;;;;5085982;28;20040;-62
2021/09/02 01:30:39;;;;;;;450.90;423.45;;;11.50;99.90;;;;;;5087890;28;20036;-62
2021/09/02 01:33:09;;;;;;;423.25;396.83;;;11.50;99.90;;;;;;5082779;28;20561;-62
2021/09/02 01:35:35;;;;;;;455.05;426.33;;;11.50;99.90;;;;;;5074892;28;20045;-62
2021/09/02 01:38:04;;;;;;;441.88;413.95;;;11.50;99.90;;;;;;5080301;28;20051;-62
2021/09/02 01:40:33;;;;;;;448.80;420.63;;;11.50;99.90;;;;;;5084859;28;20049;-62
2021/09/02 01:43:01;;;;;;;436.38;409.08;;;11.50;99.90;;;;;;5084507;28;20044;-62
2021/09/02 01:45:27;;;;;;;435.52;406.77;;;11.40;99.90;;;;;;5083109;28;20112;-62
2021/09/02 01:48:01;;;;;;;426.70;400.05;;;11.40;99.90;;;;;;5082794;28;20087;-62
2021/09/02 01:50:28;;;;;;;440.88;414.02;;;11.40;99.90;;;;;;5084475;28;20044;-65
2021/09/02 01:52:57;;;;;;;440.13;412.92;;;11.30;99.90;;;;;;5082881;28;20048;-62
2021/09/02 01:55:24;;;;;;;447.10;419.60;;;11.30;99.90;;;;;;5084809;28;20044;-62
2021/09/02 01:57:50;;;;;;;438.17;411.05;;;11.30;99.90;;;;;;5084599;28;20033;-62
2021/09/02 02:00:19;;;;;;;438.48;411.10;;;11.20;99.90;;;;;;5087906;28;20049;-62
2021/09/02 02:02:45;;;;;;;410.48;384.05;;;11.20;99.90;;;;;;5087615;28;20504;-62
2021/09/02 02:05:11;;;;;;;451.00;421.98;;;11.20;99.90;;;;;;5093308;28;20069;-62
2021/09/02 02:07:39;;;;;;;447.55;418.83;;;11.10;99.90;;;;;;5087718;28;20039;-62
2021/09/02 02:10:08;;;;;;;429.05;401.85;;;11.20;99.90;;;;;;5086604;28;20072;-62
2021/09/02 02:12:34;;;;;;;437.42;409.58;;;11.20;99.90;;;;;;5087909;28;20400;-62
2021/09/02 02:14:59;;;;;;;432.85;406.75;;;11.00;99.90;;;;;;5087423;28;20048;-62
2021/09/02 02:17:25;;;;;;;439.00;411.70;;;11.10;99.90;;;;;;5086362;28;20112;-62
2021/09/02 02:19:51;;;;;;;436.80;410.00;;;11.10;99.90;;;;;;5088002;28;20049;-62
2021/09/02 02:22:17;;;;;;;443.92;415.98;;;11.20;99.90;;;;;;5086406;28;20044;-62
2021/09/02 02:24:43;;;;;;;421.05;396.48;;;11.00;99.90;;;;;;5086036;28;20047;-62
2021/09/02 02:27:08;;;;;;;448.35;420.65;;;11.00;99.90;;;;;;5087288;28;20100;-62
2021/09/02 02:29:34;;;;;;;431.17;403.92;;;11.10;99.90;;;;;;5086176;28;20048;-62
2021/09/02 02:32:00;;;;;;;461.15;432.10;;;11.00;99.90;;;;;;5086720;28;20724;-62
2021/09/02 02:34:26;;;;;;;458.88;431.05;;;11.00;99.90;;;;;;5086979;28;20059;-62
2021/09/02 02:36:51;;;;;;;446.35;418.77;;;11.00;99.90;;;;;;5085927;28;20076;-62
2021/09/02 02:39:17;;;;;;;444.73;417.40;;;10.90;99.90;;;;;;5087760;28;20048;-62
2021/09/02 02:41:43;;;;;;;469.15;439.13;;;10.90;99.90;;;;;;5085942;28;20048;-62
2021/09/02 02:44:09;;;;;;;447.05;419.52;;;10.90;99.90;;;;;;5087022;28;20044;-62
2021/09/02 02:46:34;;;;;;;427.08;400.88;;;10.90;99.90;;;;;;5069776;28;20049;-61
2021/09/02 02:49:00;;;;;;;439.10;412.23;;;10.80;99.90;;;;;;5085818;28;20139;-61
2021/09/02 02:51:26;;;;;;;436.33;409.45;;;10.90;99.90;;;;;;5085669;28;20076;-62
2021/09/02 02:53:52;;;;;;;436.85;409.52;;;10.90;99.90;;;;;;5087063;28;20045;-61
2021/09/02 02:56:17;;;;;;;403.90;379.40;;;10.80;99.90;;;;;;5087303;28;20049;-61
2021/09/02 02:58:44;;;;;;;433.45;406.08;;;10.80;99.90;;;;;;5071703;28;20076;-61
2021/09/02 03:01:11;;;;;;;444.35;417.10;;;10.90;99.90;;;;;;5087832;28;20056;-61
2021/09/02 03:03:37;;;;;;;449.38;421.67;;;11.00;99.90;;;;;;5089164;28;20044;-61
2021/09/02 03:06:02;;;;;;;434.85;407.73;;;11.00;99.90;;;;;;5094968;28;20096;-62
2021/09/02 03:08:28;;;;;;;459.88;431.52;;;10.80;99.90;;;;;;5086482;28;20058;-61
2021/09/02 03:10:54;;;;;;;464.75;435.85;;;10.70;99.90;;;;;;5085903;28;20048;-61
2021/09/02 03:13:20;;;;;;;453.00;424.70;;;10.70;99.90;;;;;;5085350;28;20036;-61
2021/09/02 03:15:45;;;;;;;438.88;411.55;;;10.60;99.90;;;;;;5085223;28;20072;-61
2021/09/02 03:18:11;;;;;;;426.00;399.55;;;10.60;99.90;;;;;;5085351;28;20032;-61
2021/09/02 03:20:37;;;;;;;461.85;432.42;;;10.60;99.90;;;;;;5086280;28;20124;-61
2021/09/02 03:23:03;;;;;;;443.25;415.25;;;10.50;99.90;;;;;;5086809;28;20072;-61
2021/09/02 03:25:28;;;;;;;442.05;414.88;;;10.40;99.90;;;;;;5086458;28;20044;-61
2021/09/02 03:27:54;;;;;;;459.58;431.73;;;10.40;99.90;;;;;;5069294;28;20048;-61
2021/09/02 03:30:20;;;;;;;442.35;415.58;;;10.40;99.90;;;;;;5072060;28;20052;-61
2021/09/02 03:32:46;;;;;;;426.73;401.20;;;10.40;99.90;;;;;;5087196;28;20039;-61
2021/09/02 03:35:11;;;;;;;478.25;449.65;;;10.30;99.90;;;;;;5084478;28;20079;-61
2021/09/02 03:37:37;;;;;;;429.55;401.98;;;10.30;99.90;;;;;;5086216;28;20041;-61
2021/09/02 03:40:04;;;;;;;462.30;435.02;;;10.30;99.90;;;;;;5085107;28;20048;-61
2021/09/02 03:42:29;;;;;;;456.48;428.50;;;10.30;99.90;;;;;;5085608;28;20040;-62
2021/09/02 03:44:55;;;;;;;475.20;445.83;;;10.20;99.90;;;;;;5085660;28;20051;-61
2021/09/02 03:47:21;;;;;;;458.95;431.10;;;10.10;99.90;;;;;;5084566;28;20056;-61
2021/09/02 03:49:46;;;;;;;436.75;409.95;;;10.10;99.90;;;;;;5073849;28;20048;-62
2021/09/02 03:52:12;;;;;;;464.45;435.17;;;10.10;99.90;;;;;;5084440;28;20041;-61
2021/09/02 03:54:38;;;;;;;472.02;442.90;;;10.10;99.90;;;;;;5085935;28;20131;-62
2021/09/02 03:57:04;;;;;;;464.40;435.85;;;10.20;99.90;;;;;;5085532;28;20047;-61
2021/09/02 03:59:29;;;;;;;443.33;415.83;;;10.00;99.90;;;;;;5086394;28;20080;-61
2021/09/02 04:01:55;;;;;;;472.27;442.88;;;10.00;99.90;;;;;;5085719;28;20447;-61
2021/09/02 04:04:21;;;;;;;482.55;452.73;;;10.10;99.90;;;;;;5086171;28;20067;-61
2021/09/02 04:06:46;;;;;;;457.83;429.65;;;10.10;99.90;;;;;;5084781;28;20100;-61
2021/09/02 04:09:12;;;;;;;460.48;430.85;;;10.20;99.90;;;;;;5084822;28;20052;-61
2021/09/02 04:11:38;;;;;;;462.15;432.90;;;10.00;99.90;;;;;;5071983;28;20404;-61
2021/09/02 04:14:04;;;;;;;444.05;417.40;;;9.90;99.90;;;;;;5084775;28;20060;-62
2021/09/02 04:16:29;;;;;;;451.45;425.15;;;9.90;99.90;;;;;;5083962;28;20063;-61
2021/09/02 04:18:55;;;;;;;445.30;418.73;;;9.90;99.90;;;;;;5083993;28;20553;-62
2021/09/02 04:21:21;;;;;;;461.10;433.15;;;9.80;99.90;;;;;;5085121;28;20033;-61
2021/09/02 04:23:49;;;;;;;452.08;425.48;;;9.80;99.90;;;;;;5084274;28;20052;-61
2021/09/02 04:26:16;;;;;;;455.27;428.00;;;9.90;99.90;;;;;;5085151;28;20047;-62
2021/09/02 04:28:42;;;;;;;450.20;422.98;;;9.90;99.90;;;;;;5085276;28;20040;-61
2021/09/02 04:31:08;;;;;;;457.70;429.50;;;10.00;99.90;;;;;;5084430;28;20064;-62
2021/09/02 04:33:34;;;;;;;450.13;423.20;;;9.90;99.90;;;;;;5068024;28;20062;-61
2021/09/02 04:35:59;;;;;;;452.80;425.88;;;9.80;99.90;;;;;;5084046;28;20100;-61
2021/09/02 04:38:25;;;;;;;461.30;432.90;;;9.90;99.90;;;;;;5054390;28;20097;-64
2021/09/02 04:40:51;;;;;;;462.80;435.85;;;9.90;99.90;;;;;;5076522;28;20520;-64
2021/09/02 04:43:17;;;;;;;461.58;433.77;;;9.90;99.90;;;;;;5082307;28;20048;-64
2021/09/02 04:45:43;;;;;;;471.38;443.50;;;9.90;99.90;;;;;;5084074;28;20074;-64
2021/09/02 04:48:18;;;;;;;449.33;422.45;;;9.80;99.90;;;;;;5058129;28;20051;-64
2021/09/02 04:50:45;;;;;;;426.17;399.48;;;9.80;99.90;;;;;;5099883;28;20099;-64
2021/09/02 04:53:11;;;;;;;452.42;424.50;;;9.80;99.90;;;;;;5095885;27;20062;-65
2021/09/02 04:55:37;;;;;;;475.92;446.83;;;9.80;99.90;;;;;;5099870;27;20067;-65
2021/09/02 04:58:08;;;;;;;468.50;439.90;;;9.70;99.90;;;;;;5111396;27;20085;-66
2021/09/02 05:00:38;;;;;;;491.58;461.75;;;9.70;99.90;;;;;;5096725;27;20055;-65
2021/09/02 05:03:04;;;;;;;;;;;9.70;99.90;;;;;;5098398;28;20044;-65
2021/09/02 05:05:30;;;;;;;457.20;429.95;;;9.80;99.90;;;;;;5092202;28;19931;-65
2021/09/02 05:07:56;;;;;;;490.67;461.08;;;9.80;99.90;;;;;;5107427;28;20036;-65
2021/09/02 05:10:22;;;;;;;482.50;451.90;;;9.90;99.90;;;;;;5093760;27;20054;-65
2021/09/02 05:12:48;;;;;;;494.50;463.70;;;9.90;99.90;;;;;;5109196;28;20041;-65
2021/09/02 05:15:14;;;;;;;481.63;451.50;;;10.00;99.90;;;;;;5089103;28;20060;-65
2021/09/02 05:17:40;;;;;;;496.05;464.70;;;10.00;99.90;;;;;;5092280;28;20075;-65
2021/09/02 05:20:06;;;;;;;479.55;448.20;;;10.10;99.90;;;;;;5088134;28;20036;-65
2021/09/02 05:22:33;;;;;;;484.90;454.38;;;10.20;99.90;;;;;;5102163;28;20351;-65
2021/09/02 05:24:58;;;;;;;516.63;483.40;;;10.20;99.90;;;;;;5095473;28;20524;-65
2021/09/02 05:27:24;;;;;;;522.97;488.58;;;10.20;99.90;;;;;;5093211;28;20080;-65
2021/09/02 05:29:50;;;;;;;514.65;481.85;;;10.20;99.90;;;;;;5092899;28;20044;-65
2021/09/02 05:32:15;;;;;;;498.90;466.27;;;10.30;99.90;;;;;;5083756;28;20051;-65
2021/09/02 05:34:41;;;;;;;487.42;455.98;;;10.40;99.90;;;;;;5096909;28;20032;-65
2021/09/02 05:37:07;;;;;;;518.72;484.83;;;10.50;99.90;;;;;;5107033;27;20146;-64
2021/09/02 05:39:33;;;;;;;523.03;489.42;;;10.70;99.90;;;;;;5072804;28;20083;-64
2021/09/02 05:41:58;;;;;;;466.75;436.27;;;10.80;99.90;;;;;;5085933;28;20135;-66
2021/09/02 05:44:24;;;;;;;504.63;470.95;;;10.80;99.90;;;;;;5102783;28;20268;-65
2021/09/02 05:46:51;;;;;;;563.55;527.35;;;10.90;99.90;;;;;;5102201;28;20055;-64
2021/09/02 05:49:16;;;;;;;514.53;480.92;;;10.90;99.90;;;;;;5100865;28;20101;-64
2021/09/02 05:51:42;;;;;;;505.83;472.60;;;11.00;99.90;;;;;;5101114;28;20056;-64
2021/09/02 05:54:08;;;;;;;557.53;520.33;;;11.10;99.90;;;;;;5097857;28;20133;-64
2021/09/02 05:56:34;;;;;;;506.35;472.48;;;11.30;99.90;;;;;;5097781;28;20040;-65
2021/09/02 05:59:01;;;;;;;504.45;470.42;;;11.40;99.90;;;;;;5101565;28;20040;-64
2021/09/02 06:01:26;;;;;;;506.45;472.33;;;11.40;99.90;;;;;;5092300;28;20043;-64
2021/09/02 06:03:52;;;;;;;528.22;493.17;;;11.40;99.90;;;;;;5096734;28;20071;-65
2021/09/02 06:06:18;;;;;;;549.42;512.58;;;11.50;99.90;;;;;;5089714;28;20036;-65
2021/09/02 06:08:44;;;;;;;522.05;487.65;;;11.50;99.90;;;;;;5095233;28;20051;-64
2021/09/02 06:11:09;;;;;;;490.02;456.75;;;11.60;99.90;;;;;;5073754;28;20284;-65
2021/09/02 06:13:35;;;;;;;537.05;501.20;;;11.70;99.90;;;;;;5104596;28;20068;-64
2021/09/02 06:16:02;;;;;;;501.73;467.90;;;11.80;99.90;;;;;;5090996;27;20089;-64
2021/09/02 06:18:28;;;;;;;534.08;497.63;;;11.80;99.90;;;;;;5109300;28;20044;-65
2021/09/02 06:20:54;;;;;;;523.92;489.45;;;11.90;99.90;;;;;;5093803;28;20068;-65
2021/09/02 06:23:20;;;;;;;517.60;481.92;;;12.00;99.90;;;;;;5099099;28;20052;-65
2021/09/02 06:25:46;;;;;;;522.80;488.23;;;12.10;99.90;;;;;;5092384;28;20051;-65
2021/09/02 06:28:11;;;;;;;529.67;494.15;;;12.10;99.90;;;;;;5090407;28;20132;-65
2021/09/02 06:30:37;;;;;;;515.38;481.02;;;12.20;99.90;;;;;;5093350;28;20131;-65
2021/09/02 06:33:03;;;;;;;539.25;502.70;;;12.30;99.90;;;;;;5081622;28;20044;-65
2021/09/02 06:35:29;;;;;;;533.28;498.33;;;12.40;99.90;;;;;;5087406;28;20059;-65
2021/09/02 06:37:55;;;;;;;544.65;507.27;;;12.50;99.90;;;;;;5080130;28;20052;-65
2021/09/02 06:40:21;;;;;;;540.60;504.90;;;12.60;99.90;;;;;;5053582;28;20529;-65
2021/09/02 06:42:47;;;;;;;522.35;486.33;;;12.70;99.90;;;;;;5094388;28;20103;-65
2021/09/02 06:45:12;;;;;;;525.65;490.45;;;12.60;99.90;;;;;;5097268;28;20055;-65
2021/09/02 06:47:39;;;;;;;523.00;487.95;;;12.70;99.90;;;;;;5070368;28;20571;-65
2021/09/02 06:50:10;;;;;;;543.28;505.75;;;12.80;99.90;;;;;;5097728;28;20107;-65
2021/09/02 06:52:36;;;;;;;546.80;509.70;;;12.80;99.90;;;;;;5086466;28;20044;-66
2021/09/02 06:55:02;;;;;;;527.00;491.98;;;12.80;99.90;;;;;;5096560;28;20072;-65
2021/09/02 06:57:28;;;;;;;544.72;506.35;;;12.90;99.90;;;;;;5088829;28;20043;-65
2021/09/02 06:59:55;;;;;;;562.17;524.63;;;13.00;99.90;;;;;;5098060;28;20048;-65
2021/09/02 07:02:21;;;;;;;542.75;505.23;;;13.10;99.90;;;;;;5084998;28;20355;-66
2021/09/02 07:04:47;;;;;;;548.13;510.00;;;13.10;99.90;;;;;;5101753;28;20490;-66
2021/09/02 07:07:12;;;;;;;557.60;518.67;;;13.20;99.90;;;;;;5090562;28;20043;-66
2021/09/02 07:09:38;;;;;;;558.38;520.30;;;13.30;99.90;;;;;;5074445;28;20056;-66
2021/09/02 07:12:04;;;;;;;578.17;535.78;;;13.30;99.90;;;;;;5073073;28;20128;-66
2021/09/02 07:14:31;;;;;;;579.53;538.95;;;13.40;99.90;;;;;;5099603;28;20052;-66
2021/09/02 07:16:57;;;;;;;563.55;523.47;;;13.50;99.90;;;;;;5090538;28;20075;-67
2021/09/02 07:19:22;;;;;;;558.25;519.58;;;13.60;99.90;;;;;;5094393;28;20081;-66
2021/09/02 07:21:48;;;;;;;578.35;538.78;;;13.70;99.90;;;;;;5089664;28;20056;-66
2021/09/02 07:24:14;;;;;;;573.65;533.22;;;13.70;99.90;;;;;;5083737;28;20075;-66
2021/09/02 07:26:40;;;;;;;572.08;532.88;;;13.80;99.90;;;;;;5090567;28;20055;-67
2021/09/02 07:29:07;;;;;;;589.50;547.08;;;13.90;99.90;;;;;;5083128;28;20045;-65
2021/09/02 07:31:37;;;;;;;574.78;533.53;;;14.00;99.90;;;;;;5095320;28;20073;-65
2021/09/02 07:34:03;;;;;;;588.08;547.10;;;14.10;99.90;;;;;;5084161;28;20052;-65
2021/09/02 07:36:29;;;;;;;601.08;558.65;;;14.20;99.90;;;;;;5075351;28;20119;-65
2021/09/02 07:38:55;;;;;;;607.55;563.42;;;14.30;99.90;;;;;;5063914;28;20082;-66
2021/09/02 07:41:20;;;;;;;574.17;532.83;;;14.40;99.90;;;;;;5074691;28;20060;-66
2021/09/02 07:43:46;;;;;;;603.42;558.95;;;14.40;99.90;;;;;;5068338;28;20041;-66
2021/09/02 07:46:12;;;;;;;601.40;556.58;;;14.50;99.90;;;;;;5051633;28;20044;-65
2021/09/02 07:48:38;;;;;;;579.40;537.83;;;14.60;99.90;;;;;;5063347;28;20032;-65
2021/09/02 07:51:03;;;;;;;624.20;577.30;;;14.60;99.90;;;;;;5056587;28;20550;-65
2021/09/02 07:53:30;;;;;;;607.97;563.70;;;14.70;99.90;;;;;;5071850;28;20053;-65
2021/09/02 07:55:56;;;;;;;586.80;541.85;;;14.80;99.90;;;;;;5048339;28;20045;-65
2021/09/02 07:58:22;;;;;;;566.47;527.25;;;14.90;99.90;;;;;;5070854;28;20068;-65
2021/09/02 08:00:48;;;;;;;625.33;578.80;;;14.90;99.90;;;;;;5039657;28;20114;-66
2021/09/02 08:03:14;;;;;;;648.88;600.60;;;15.00;99.90;;;;;;5076509;28;20072;-65
2021/09/02 08:05:40;;;;;;;580.33;537.22;;;15.00;99.90;;;;;;5053576;28;20169;-65
2021/09/02 08:08:07;;;;;;;573.13;530.70;;;15.10;99.90;;;;;;5058007;28;20143;-65
2021/09/02 08:10:33;;;;;;;580.22;538.25;;;15.20;99.90;;;;;;5075588;28;20041;-65
2021/09/02 08:12:59;;;;;;;600.80;557.10;;;15.20;99.90;;;;;;5058840;28;20057;-65
2021/09/02 08:15:25;;;;;;;614.67;568.00;;;15.40;99.90;;;;;;5077627;28;20044;-64
2021/09/02 08:17:52;;;;;;;569.53;526.33;;;15.50;99.90;;;;;;5065925;28;20627;-64
2021/09/02 08:20:19;;;;;;;584.92;541.90;;;15.50;99.90;;;;;;5077010;28;20048;-65
2021/09/02 08:22:46;;;;;;;582.92;539.88;;;15.60;99.90;;;;;;5069459;28;20362;-64
2021/09/02 08:25:13;;;;;;;592.85;548.42;;;15.60;99.90;;;;;;5059459;28;20059;-64
2021/09/02 08:27:40;;;;;;;595.40;549.97;;;15.70;99.90;;;;;;5047957;28;20049;-65
2021/09/02 08:30:07;;;;;;;611.55;567.70;;;15.80;99.90;;;;;;5068980;28;20059;-64
2021/09/02 08:32:33;;;;;;;575.22;531.97;;;15.90;99.90;;;;;;5051904;28;20075;-65
2021/09/02 08:34:59;;;;;;;625.13;577.58;;;15.90;99.90;;;;;;5076699;28;20056;-65
2021/09/02 08:37:25;;;;;;;574.80;531.53;;;16.00;99.90;;;;;;5076489;28;20096;-65
2021/09/02 08:39:51;;;;;;;623.20;575.22;;;16.10;99.90;;;;;;5075991;28;20051;-65
2021/09/02 08:42:17;;;;;;;574.47;530.55;;;16.10;99.90;;;;;;5076979;28;20146;-65
2021/09/02 08:44:44;;;;;;;581.78;538.80;;;16.20;99.90;;;;;;5078091;28;20044;-65
2021/09/02 08:47:11;;;;;;;566.83;523.97;;;16.20;99.90;;;;;;5084628;28;20163;-66
2021/09/02 08:49:37;;;;;;;563.50;519.53;;;16.40;99.90;;;;;;5077073;28;20080;-65
2021/09/02 08:52:04;;;;;;;589.90;545.97;;;16.40;99.90;;;;;;5080902;28;20077;-66
2021/09/02 08:54:32;;;;;;;574.83;531.50;;;16.40;99.90;;;;;;5083149;28;20094;-65
2021/09/02 08:56:58;;;;;;;570.15;527.63;;;16.50;99.90;;;;;;5080854;28;20407;-65
2021/09/02 08:59:23;;;;;;;626.85;577.10;;;16.60;99.90;;;;;;5077180;28;20059;-65
2021/09/02 09:01:50;;;;;;;638.95;588.67;;;16.60;99.90;;;;;;5079839;28;20054;-65
2021/09/02 09:04:16;;;;;;;590.53;544.35;;;16.70;99.90;;;;;;5081127;28;20104;-65
2021/09/02 09:06:42;;;;;;;603.90;556.53;;;16.70;99.90;;;;;;5076167;28;20073;-65
2021/09/02 09:09:13;;;;;;;562.42;518.45;;;16.80;99.90;;;;;;5088241;28;20040;-65
2021/09/02 09:11:48;;;;;;;538.22;499.17;;;16.90;99.90;;;;;;5069628;28;20071;-65
2021/09/02 09:14:22;;;;;;;548.75;505.02;;;17.00;99.90;;;;;;5082000;28;20043;-65
2021/09/02 09:16:58;;;;;;;556.10;514.15;;;17.00;99.90;;;;;;5067138;28;20079;-65
2021/09/02 09:19:40;;;;;;;600.50;554.88;;;17.10;99.90;;;;;;5066962;28;20051;-66
2021/09/02 09:22:10;;;;;;;571.50;525.90;;;17.10;99.90;;;;;;5077550;28;20134;-66
2021/09/02 09:24:42;;;;;;;606.75;558.33;;;17.20;99.90;;;;;;5080923;28;20087;-65
2021/09/02 09:27:08;;;;;;;573.47;530.45;;;17.30;99.90;;;;;;5078517;28;20103;-66
2021/09/02 09:29:34;;;;;;;532.13;493.02;;;17.30;99.90;;;;;;5077384;28;20078;-65
2021/09/02 09:32:15;;;;;;;520.42;481.80;;;17.30;99.90;;;;;;5074268;28;20104;-66
2021/09/02 09:34:52;;;;;;;542.72;500.92;;;17.30;99.90;;;;;;5079055;28;20490;-66
2021/09/02 09:37:20;;;;;;;521.50;481.80;;;17.30;99.90;;;;;;5080545;28;20051;-65
2021/09/02 09:39:48;;;;;;;515.35;475.58;;;17.30;99.90;;;;;;5069248;28;20051;-65
2021/09/02 09:42:17;;;;;;;511.75;473.13;;;17.30;99.90;;;;;;5063943;28;20049;-65
2021/09/02 09:44:43;;;;;;;510.35;472.80;;;17.30;99.90;;;;;;5065285;28;20044;-65
2021/09/02 09:47:10;;;;;;;535.53;496.13;;;17.40;99.90;;;;;;5062752;28;20266;-66
2021/09/02 09:49:48;;;;;;;546.13;505.83;;;17.40;99.90;;;;;;5055021;28;20041;-65
2021/09/02 09:52:31;;;;;;;545.13;504.40;;;17.40;99.90;;;;;;5049120;28;20480;-66
2021/09/02 09:55:09;;;;;;;495.80;460.00;;;17.50;99.90;;;;;;5053633;28;20049;-66
2021/09/02 09:57:36;;;;;;;535.50;496.67;;;17.50;99.90;;;;;;5054010;28;20078;-65
2021/09/02 10:00:06;;;;;;;538.70;499.80;;;17.50;99.90;;;;;;5070608;28;20048;-64
2021/09/02 10:02:35;;;;;;;510.10;472.27;;;17.60;99.90;;;;;;5063065;28;20148;-65
2021/09/02 10:05:04;;;;;;;534.20;495.30;;;17.60;99.90;;;;;;5063148;28;20044;-65
2021/09/02 10:07:31;;;;;;;533.22;494.48;;;17.70;99.90;;;;;;5067294;28;20051;-65
2021/09/02 10:09:58;;;;;;;530.85;492.48;;;17.70;99.90;;;;;;5073764;28;20053;-65
2021/09/02 10:12:24;;;;;;;485.00;450.35;;;17.70;99.90;;;;;;5066039;28;20048;-65
2021/09/02 10:14:50;;;;;;;509.55;472.80;;;17.70;99.90;;;;;;5060879;28;20109;-65
2021/09/02 10:17:16;;;;;;;526.47;487.70;;;17.80;99.90;;;;;;5065364;28;20465;-65
2021/09/02 10:19:43;;;;;;;525.15;486.85;;;17.80;99.90;;;;;;5059272;28;20104;-64
2021/09/02 10:22:11;;;;;;;517.45;479.15;;;17.90;99.90;;;;;;5076027;28;20064;-65
2021/09/02 10:24:47;;;;;;;522.22;484.70;;;18.00;99.90;;;;;;5057550;28;20041;-64
2021/09/02 10:27:21;;;;;;;534.85;495.88;;;18.10;99.90;;;;;;5067447;28;20048;-64
2021/09/02 10:29:49;;;;;;;530.38;492.27;;;18.10;99.90;;;;;;5076928;28;20649;-65
2021/09/02 10:32:24;;;;;;;517.38;479.27;;;18.10;99.90;;;;;;5067485;28;20508;-65
2021/09/02 10:34:50;;;;;;;527.38;488.83;;;18.20;99.90;;;;;;5062799;28;20040;-65
2021/09/02 10:37:34;;;;;;;499.45;462.52;;;18.20;99.90;;;;;;5070851;28;20056;-65
2021/09/02 10:40:22;;;;;;;533.28;495.50;;;18.30;99.90;;;;;;5067218;28;20064;-65
2021/09/02 10:42:56;;;;;;;527.63;489.85;;;18.20;99.90;;;;;;5068559;28;20916;-64
2021/09/02 10:45:28;;;;;;;496.88;462.48;;;18.30;99.90;;;;;;5075926;28;20510;-65
2021/09/02 10:48:02;;;;;;;513.17;476.60;;;18.40;99.90;;;;;;5069158;28;20504;-65
2021/09/02 10:50:35;;;;;;;503.88;467.35;;;18.40;99.90;;;;;;5075035;28;20063;-65
2021/09/02 10:53:07;;;;;;;515.63;478.63;;;18.50;99.90;;;;;;5085001;28;20052;-65
2021/09/02 10:55:36;;;;;;;481.00;447.52;;;18.60;99.90;;;;;;5076713;28;20067;-65
2021/09/02 10:58:04;;;;;;;511.10;475.53;;;18.60;99.90;;;;;;5069559;28;20169;-65
2021/09/02 11:00:41;;;;;;;522.63;484.40;;;18.60;99.90;;;;;;5059635;28;20048;-65
2021/09/02 11:03:21;;;;;;;501.80;466.58;;;18.70;99.90;;;;;;5068925;28;20070;-65
2021/09/02 11:05:53;;;;;;;500.83;466.02;;;18.70;99.90;;;;;;5073309;28;20252;-65
2021/09/02 11:08:32;;;;;;;518.47;481.70;;;18.70;99.90;;;;;;5070523;28;20076;-65
2021/09/02 11:11:20;;;;;;;496.95;462.63;;;18.80;99.90;;;;;;5076925;28;20052;-65
2021/09/02 11:13:55;;;;;;;490.35;456.17;;;18.80;99.90;;;;;;5046112;28;20045;-65
2021/09/02 11:16:23;;;;;;;490.88;457.77;;;18.90;99.90;;;;;;5066227;28;20045;-66
2021/09/02 11:18:51;;;;;;;513.33;478.13;;;18.90;99.90;;;;;;5117345;27;20135;-66
2021/09/02 11:21:18;;;;;;;516.08;481.50;;;18.90;99.90;;;;;;5085857;28;20376;-66
2021/09/02 11:23:46;;;;;;;509.55;473.67;;;18.90;99.90;;;;;;5109618;28;20028;-66
2021/09/02 11:26:29;;;;;;;508.77;474.23;;;19.00;99.90;;;;;;5131440;27;20066;-65
2021/09/02 11:28:55;;;;;;;463.02;431.27;;;19.00;99.90;;;;;;5049129;28;20057;-65
2021/09/02 11:31:21;;;;;;;501.58;467.08;;;19.10;99.90;;;;;;5099435;28;20058;-66
2021/09/02 11:33:48;;;;;;;484.63;451.50;;;19.10;99.90;;;;;;5075003;28;20047;-65
2021/09/02 11:36:15;;;;;;;478.20;446.08;;;19.20;99.90;;;;;;5075598;28;20074;-66
2021/09/02 11:38:42;;;;;;;530.78;492.88;;;19.30;99.90;;;;;;5072990;28;20266;-66
2021/09/02 11:41:16;;;;;;;463.77;425.88;;;19.20;99.90;;;;;;5075206;28;20047;-65
2021/09/02 11:43:42;;;;;;;495.27;459.92;;;19.20;99.90;;;;;;5081676;28;20059;-65
2021/09/02 11:46:08;;;;;;;509.55;474.65;;;19.40;99.90;;;;;;5075660;28;20040;-65
2021/09/02 11:48:44;;;;;;;521.17;485.38;;;19.40;99.90;;;;;;5081709;28;20645;-65
2021/09/02 11:51:10;;;;;;;492.88;457.98;;;19.40;99.90;;;;;;5075229;28;20137;-66
2021/09/02 11:53:36;;;;;;;509.15;474.85;;;19.40;99.90;;;;;;5098109;28;20574;-65
2021/09/02 11:56:21;;;;;;;510.55;476.13;;;19.50;99.90;;;;;;5075565;28;20056;-65
2021/09/02 11:58:57;;;;;;;533.47;497.95;;;19.50;99.90;;;;;;5094255;28;20048;-65
2021/09/02 12:01:23;;;;;;;545.15;509.25;;;19.40;99.90;;;;;;5075132;28;20052;-65
2021/09/02 12:03:50;;;;;;;481.45;449.20;;;19.40;99.90;;;;;;5083708;28;20051;-65
2021/09/02 12:06:24;;;;;;;506.80;473.30;;;19.40;99.90;;;;;;5077975;28;20136;-65
2021/09/02 12:08:51;;;;;;;473.73;442.42;;;19.50;99.90;;;;;;5085306;28;20052;-65